Time;durP1;ratioP1;P1;durP2;ratioP2;P2;SDS_P1;SDS_P2;PMS_P1;PMS_P2;Temp;Humidity;BMP_temperature;BMP_pressure;BME280_temperature;BME280_humidity;BME280_pressure;Samples;Min_cycle;Max_cycle;Signal;HPM_P1;HPM_P2
2022/01/09 00:03:43;;;;;;;27.15;11.80;;;;;;;-0.41;76.67;98832.97;6184510;23;20103;-89
2022/01/09 00:06:16;;;;;;;26.58;11.48;;;;;;;-0.62;76.71;98797.25;6133258;23;20035;-89
2022/01/09 00:09:11;;;;;;;30.42;11.57;;;;;;;-0.40;76.93;98834.66;6184078;23;20017;-89
2022/01/09 00:11:42;;;;;;;23.98;10.98;;;;;;;-0.48;76.31;98808.50;6158908;23;20377;-89
2022/01/09 00:14:18;;;;;;;25.00;11.23;;;;;;;-0.11;76.07;98860.53;6183041;23;20442;-87
2022/01/09 00:17:41;;;;;;;22.05;9.93;;;;;;;-0.72;75.71;98773.59;6276469;22;20034;-87
2022/01/09 00:20:12;;;;;;;21.17;9.32;;;;;;;-0.55;75.39;98791.59;6250190;22;20012;-90
2022/01/09 00:23:06;;;;;;;25.42;12.30;;;;;;;-1.36;75.47;98649.88;6250411;22;20015;-89
2022/01/09 00:25:37;;;;;;;19.17;10.27;;;;;;;-0.33;75.25;98808.09;6250073;22;20042;-88
2022/01/09 00:28:07;;;;;;;19.92;9.25;;;;;;;-0.08;75.23;98843.94;6276246;22;20336;-89
2022/01/09 00:30:36;;;;;;;18.95;8.85;;;;;;;-0.49;74.92;98770.88;6277392;22;20046;-88
2022/01/09 00:33:08;;;;;;;21.05;9.15;;;;;;;-0.72;74.93;98743.53;6201938;22;20070;-89
2022/01/09 00:35:39;;;;;;;18.75;8.52;;;;;;;-0.28;74.98;98809.94;6201895;22;20050;-89
2022/01/09 00:38:33;;;;;;;21.77;9.13;;;;;;;-0.29;74.24;98813.22;6278812;22;20069;-89
2022/01/09 00:41:03;;;;;;;17.20;8.43;;;;;;;-0.58;74.38;98765.63;6252039;22;20317;-89
2022/01/09 00:43:57;;;;;;;18.30;8.68;;;;;;;-0.33;74.79;98801.44;6199939;22;20023;-88
2022/01/09 00:46:38;;;;;;;22.17;9.40;;;;;;;-1.47;74.46;98622.06;6129321;22;20094;-88
2022/01/09 00:49:11;;;;;;;22.90;9.95;;;;;;;-0.18;74.54;98824.41;6279236;22;20095;-88
2022/01/09 00:51:54;;;;;;;18.17;8.80;;;;;;;-0.69;74.94;98727.75;6229592;22;20078;-90
2022/01/09 00:54:31;;;;;;;16.33;8.48;;;;;;;-0.42;74.18;98758.56;6276698;22;20023;-90
2022/01/09 00:57:02;;;;;;;20.67;8.02;;;;;;;-0.19;74.73;98807.66;6251971;22;20012;-89
2022/01/09 01:03:13;;;;;;;15.07;7.40;;;;;;;-0.80;74.55;98699.06;6283460;22;20032;-86
2022/01/09 04:19:36;;;;;;;13.77;5.55;;;;;;;-4.16;77.26;98630.19;5199077;23;20059;-84
2022/01/09 08:12:26;;;;;;;22.98;9.90;;;;;;;-1.38;71.82;98429.69;6259828;22;20034;-91
2022/01/09 08:14:58;;;;;;;22.08;10.15;;;;;;;-1.24;71.61;98434.19;6282869;22;20095;-90
2022/01/09 08:27:57;;;;;;;22.42;9.38;;;;;;;-0.73;71.15;98380.34;6253465;22;20035;-91
2022/01/09 08:30:27;;;;;;;35.08;17.33;;;;;;;0.24;71.04;98503.59;6247470;23;20082;-92
2022/01/09 08:32:57;;;;;;;22.88;10.77;;;;;;;-1.09;70.99;98274.38;6248788;23;20368;-92
2022/01/09 08:35:32;;;;;;;22.17;10.15;;;;;;;0.20;71.07;98475.91;6248199;22;20024;-92
2022/01/09 08:38:11;;;;;;;24.27;10.98;;;;;;;0.28;70.54;98479.44;6221877;23;20024;-91
2022/01/09 08:43:39;;;;;;;18.08;8.20;;;;;;;-0.31;70.48;98396.31;6246518;22;20039;-92
2022/01/09 08:49:32;;;;;;;20.52;9.45;;;;;;;0.36;69.53;98523.09;6248593;22;20031;-94
2022/01/09 08:52:03;;;;;;;19.40;8.07;;;;;;;-0.02;68.97;98464.59;6279058;22;20015;-93
2022/01/09 08:54:34;;;;;;;15.75;7.40;;;;;;;-0.01;69.39;98471.31;6253210;22;20019;-93
2022/01/09 08:57:05;;;;;;;27.77;12.95;;;;;;;0.02;69.78;98468.03;6201134;22;20047;-93
2022/01/09 08:59:52;;;;;;;20.67;9.52;;;;;;;-0.19;69.49;98421.63;6230497;22;20023;-92
2022/01/09 09:02:37;;;;;;;37.58;16.52;;;;;;;0.59;68.89;98524.41;6226850;22;20035;-94
2022/01/09 09:05:13;;;;;;;47.58;19.50;;;;;;;0.61;68.31;98490.13;6278996;22;20019;-93
2022/01/09 09:07:43;;;;;;;20.20;9.23;;;;;;;-0.27;68.69;98332.94;6254591;22;20020;-92
2022/01/09 09:10:15;;;;;;;17.55;9.32;;;;;;;0.77;67.83;98492.09;6278772;22;20046;-94
2022/01/09 09:12:45;;;;;;;15.30;8.40;;;;;;;0.83;67.69;98522.38;6251564;22;20050;-94
2022/01/09 09:15:21;;;;;;;18.08;9.32;;;;;;;0.48;67.37;98450.59;6252518;22;20094;-94
2022/01/09 09:17:55;;;;;;;23.42;8.50;;;;;;;0.74;66.85;98497.09;6251456;22;20390;-94
2022/01/09 09:20:27;;;;;;;21.10;9.65;;;;;;;0.67;66.71;98476.03;6251907;22;20119;-93
2022/01/09 09:23:02;;;;;;;18.85;9.10;;;;;;;0.99;66.51;98511.78;6277926;22;20023;-94
2022/01/09 09:25:32;;;;;;;20.48;8.90;;;;;;;0.56;66.41;98431.47;6251434;22;20074;-94
2022/01/09 09:28:04;;;;;;;17.00;8.48;;;;;;;0.31;66.40;98359.09;6278217;22;20022;-95
2022/01/09 09:30:37;;;;;;;20.95;9.27;;;;;;;0.85;66.47;98430.31;6278324;22;20030;-94
2022/01/09 09:33:09;;;;;;;21.75;9.65;;;;;;;1.49;66.37;98521.84;6278229;22;20023;-94
2022/01/09 09:35:40;;;;;;;19.52;10.23;;;;;;;1.66;65.95;98520.44;6226604;22;20077;-95
2022/01/09 09:38:10;;;;;;;22.73;9.70;;;;;;;1.25;65.97;98421.75;6278259;22;20043;-94
2022/01/09 09:40:41;;;;;;;18.73;9.63;;;;;;;1.86;65.49;98521.59;6250899;22;20016;-94
2022/01/09 09:43:10;;;;;;;22.85;9.73;;;;;;;1.62;64.80;98463.38;6251354;22;20073;-92
2022/01/09 09:45:42;;;;;;;25.08;10.23;;;;;;;1.84;65.27;98460.34;6251256;22;20026;-94
2022/01/09 09:48:19;;;;;;;18.80;9.27;;;;;;;2.16;64.60;98509.41;6251029;22;20024;-94
2022/01/09 09:50:55;;;;;;;20.55;9.75;;;;;;;1.96;64.75;98495.75;6251486;22;20019;-93
2022/01/09 09:53:26;;;;;;;19.02;10.00;;;;;;;1.68;64.42;98433.31;6251905;22;20054;-94
2022/01/09 09:56:01;;;;;;;21.80;11.05;;;;;;;2.11;64.46;98485.91;6226395;22;20046;-94
2022/01/09 09:58:30;;;;;;;17.67;9.27;;;;;;;1.42;64.29;98364.25;6251263;22;20402;-94
2022/01/09 10:01:02;;;;;;;20.02;9.50;;;;;;;2.15;64.13;98470.00;6278134;22;20019;-94
2022/01/09 10:03:35;;;;;;;18.95;9.25;;;;;;;2.22;63.79;98509.53;6251217;22;20052;-94
2022/01/09 10:06:04;;;;;;;22.15;9.93;;;;;;;1.87;63.68;98470.47;6225846;22;20016;-95
2022/01/09 10:08:39;;;;;;;;;;;;;;;2.12;63.72;98497.63;6278396;22;20023;-93
2022/01/09 10:11:17;;;;;;;19.70;9.23;;;;;;;2.03;63.63;98485.78;6201218;22;19985;-93
2022/01/09 10:13:47;;;;;;;23.35;9.20;;;;;;;1.36;63.69;98380.06;6226916;22;20070;-94
2022/01/09 10:16:19;;;;;;;21.52;8.98;;;;;;;1.83;63.94;98466.19;6277905;22;20016;-94
2022/01/09 10:18:51;;;;;;;20.63;9.10;;;;;;;2.08;63.85;98498.44;6278108;22;20335;-94
2022/01/09 10:21:25;;;;;;;18.85;9.80;;;;;;;2.21;64.09;98477.63;6251174;22;20058;-94
2022/01/09 10:24:02;;;;;;;19.42;8.85;;;;;;;2.04;63.48;98443.84;6251337;22;20086;-93
2022/01/09 10:26:36;;;;;;;20.23;8.10;;;;;;;2.26;62.51;98506.22;6226324;22;20058;-94
2022/01/09 10:29:08;;;;;;;17.05;8.10;;;;;;;2.30;62.28;98502.91;6251932;22;20086;-93
2022/01/09 10:31:45;;;;;;;21.42;9.68;;;;;;;2.39;62.67;98503.03;6226465;22;20031;-93
2022/01/09 10:34:18;;;;;;;18.42;9.50;;;;;;;2.23;62.21;98455.81;6225672;22;20022;-93
2022/01/09 10:36:51;;;;;;;17.42;8.27;;;;;;;2.33;62.23;98470.22;6251409;22;20325;-93
2022/01/09 10:39:31;;;;;;;18.45;9.07;;;;;;;2.66;62.48;98494.97;6251169;22;20016;-93
2022/01/09 10:42:03;;;;;;;15.50;8.48;;;;;;;2.79;63.28;98498.44;6277882;22;20020;-94
2022/01/09 10:44:35;;;;;;;18.85;8.93;;;;;;;2.66;63.29;98452.16;6225479;22;20118;-93
2022/01/09 10:47:12;;;;;;;18.08;8.57;;;;;;;2.69;62.66;98463.09;6200479;22;20047;-94
2022/01/09 10:49:44;;;;;;;20.02;9.18;;;;;;;2.93;62.91;98482.63;6225845;22;20024;-94
2022/01/09 10:52:20;;;;;;;20.25;8.68;;;;;;;2.80;61.99;98480.84;6251010;22;20046;-94
2022/01/09 10:54:52;;;;;;;20.25;9.10;;;;;;;2.77;62.49;98490.03;6251304;22;20024;-94
2022/01/09 10:57:25;;;;;;;20.52;9.10;;;;;;;2.76;61.74;98478.28;6250539;22;20020;-94
2022/01/09 11:00:04;;;;;;;16.50;8.38;;;;;;;2.68;61.60;98481.56;6277775;22;20041;-94
2022/01/09 11:02:37;;;;;;;17.95;8.55;;;;;;;2.68;62.20;98484.09;6226180;22;20036;-93
2022/01/09 11:05:09;;;;;;;15.60;7.82;;;;;;;2.58;61.91;98469.69;6250727;22;20028;-93
2022/01/09 11:07:41;;;;;;;19.55;8.18;;;;;;;2.59;62.23;98478.09;6252041;22;20027;-90
2022/01/09 11:10:20;;;;;;;15.10;8.23;;;;;;;2.54;61.14;98472.97;6203479;22;20018;-94
2022/01/09 11:12:52;;;;;;;14.35;6.75;;;;;;;2.54;60.62;98472.16;6250991;22;20020;-94
2022/01/09 11:15:24;;;;;;;13.00;5.97;;;;;;;2.60;61.17;98472.22;6277503;22;20024;-94
2022/01/09 11:18:41;;;;;;;9.75;3.88;;;;;;;2.60;59.00;98468.03;6263471;22;20020;-92
2022/01/09 11:38:15;;;;;;;8.68;3.75;;;;;;;1.55;56.76;98300.72;6243359;22;20808;-83
2022/01/09 12:20:28;;;;;;;8.80;4.85;;;;;;;2.54;56.45;98467.94;6279637;22;20023;-91
2022/01/09 12:23:04;;;;;;;10.77;4.83;;;;;;;2.26;56.53;98424.81;6253616;22;20019;-91
2022/01/09 12:25:57;;;;;;;10.23;4.32;;;;;;;1.66;56.73;98315.13;6177238;22;20091;-91
2022/01/09 12:28:48;;;;;;;9.55;4.28;;;;;;;2.69;56.73;98475.69;6251994;22;20020;-90
2022/01/09 12:34:30;;;;;;;8.07;4.43;;;;;;;2.60;57.18;98473.06;6261127;22;20459;-92
2022/01/09 12:37:58;;;;;;;12.63;4.70;;;;;;;2.59;57.70;98481.44;6252217;23;20031;-93
2022/01/09 12:40:30;;;;;;;15.68;5.90;;;;;;;2.33;57.68;98422.41;6222071;23;20036;-93
2022/01/09 12:43:01;;;;;;;10.70;4.72;;;;;;;2.66;58.00;98467.25;6247998;23;20091;-92
2022/01/09 12:45:34;;;;;;;16.20;5.07;;;;;;;2.05;57.51;98365.03;6221377;23;20022;-92
2022/01/09 13:36:58;;;;;;;13.07;5.50;;;;;;;0.84;61.01;98298.06;6193335;22;20026;-91
2022/01/09 14:04:21;;;;;;;15.85;5.70;;;;;;;0.80;66.61;98416.84;6306003;22;20038;-91
2022/01/09 14:10:43;;;;;;;14.30;5.75;;;;;;;1.45;67.44;98545.22;6313491;22;20019;-89
2022/01/09 14:13:20;;;;;;;13.40;5.53;;;;;;;0.95;68.38;98448.91;6230787;22;20351;-89
2022/01/09 14:15:55;;;;;;;13.45;5.55;;;;;;;1.24;68.50;98503.84;6282604;22;20023;-90
2022/01/09 14:18:28;;;;;;;16.63;7.00;;;;;;;1.53;68.96;98546.22;6256198;22;20023;-90
2022/01/09 14:21:15;;;;;;;18.80;7.85;;;;;;;1.54;69.14;98540.34;6282233;22;20359;-90
2022/01/09 14:23:48;;;;;;;10.88;5.45;;;;;;;1.34;69.54;98503.16;6183915;22;20034;-90
2022/01/09 14:26:39;;;;;;;15.98;6.45;;;;;;;1.39;69.51;98517.50;6243593;22;20011;-89
2022/01/09 14:29:38;;;;;;;16.17;6.82;;;;;;;1.27;69.38;98498.84;6281743;22;20439;-90
2022/01/09 14:32:18;;;;;;;13.30;6.43;;;;;;;1.43;70.32;98525.09;6256772;22;20026;-90
2022/01/09 14:38:57;;;;;;;14.60;6.25;;;;;;;0.79;70.04;98435.25;6312174;22;20019;-91
2022/01/09 14:41:40;;;;;;;15.50;6.83;;;;;;;1.45;70.37;98545.22;6201131;22;20431;-91
2022/01/09 14:44:12;;;;;;;16.75;6.88;;;;;;;0.82;70.93;98441.97;6281969;22;20391;-91
2022/01/09 14:46:45;;;;;;;14.88;6.63;;;;;;;0.64;71.17;98408.22;6254446;22;20414;-91
2022/01/09 14:49:40;;;;;;;15.55;6.60;;;;;;;1.47;70.84;98543.56;6308994;22;20457;-90
2022/01/09 14:52:15;;;;;;;11.50;6.18;;;;;;;1.44;71.48;98546.06;6308918;22;20343;-90
2022/01/09 14:54:53;;;;;;;13.77;6.55;;;;;;;1.53;71.47;98543.69;6207483;22;20021;-90
2022/01/09 14:58:06;;;;;;;16.80;7.70;;;;;;;1.53;70.68;98548.72;6281319;22;20390;-91
2022/01/09 15:04:40;;;;;;;10.60;5.60;;;;;;;0.98;71.30;98505.06;6289001;22;20051;-90
2022/01/09 15:10:23;;;;;;;28.15;9.93;;;;;;;1.17;70.99;98544.78;6309678;22;20023;-90
2022/01/09 15:12:53;;;;;;;19.90;9.82;;;;;;;1.10;70.84;98522.88;6259932;22;20030;-92
2022/01/09 15:15:24;;;;;;;17.40;7.53;;;;;;;1.08;71.80;98511.94;6281366;22;20019;-93
2022/01/09 15:17:56;;;;;;;14.98;6.70;;;;;;;1.39;71.46;98545.13;6281746;22;20029;-91
2022/01/09 15:20:29;;;;;;;14.15;5.95;;;;;;;1.30;70.83;98539.13;6231550;22;20439;-91
2022/01/09 15:23:04;;;;;;;12.77;6.85;;;;;;;1.40;70.69;98545.16;6258668;22;20447;-92
2022/01/09 15:25:40;;;;;;;13.68;6.68;;;;;;;1.06;70.75;98490.97;6283215;22;20026;-92
2022/01/09 15:28:15;;;;;;;10.15;5.40;;;;;;;1.50;70.26;98558.72;6233072;22;20015;-92
2022/01/09 15:30:50;;;;;;;10.50;4.97;;;;;;;1.54;70.52;98552.91;6284805;22;20098;-92
2022/01/09 15:33:29;;;;;;;14.90;6.07;;;;;;;1.40;70.32;98526.72;6310615;22;20094;-91
2022/01/09 15:35:59;;;;;;;13.77;6.10;;;;;;;0.88;69.85;98470.56;6208757;22;20019;-92
2022/01/09 15:38:30;;;;;;;13.50;6.47;;;;;;;1.46;70.92;98572.06;6283123;22;20095;-92
2022/01/09 15:41:02;;;;;;;13.07;6.55;;;;;;;1.15;70.93;98517.94;6283287;22;20015;-91
2022/01/09 15:43:33;;;;;;;10.30;4.90;;;;;;;1.32;71.16;98559.25;6310344;22;20042;-92
2022/01/09 15:46:03;;;;;;;12.80;5.35;;;;;;;1.40;71.55;98556.84;6258415;22;20548;-91
2022/01/09 15:48:33;;;;;;;12.05;5.45;;;;;;;0.82;71.60;98460.41;6310201;22;20042;-91
2022/01/09 15:51:03;;;;;;;11.93;5.38;;;;;;;1.46;71.32;98574.56;6283228;22;20018;-91
2022/01/09 15:53:33;;;;;;;15.00;6.47;;;;;;;1.47;72.12;98581.28;6283061;22;20068;-91
2022/01/09 15:56:08;;;;;;;;;;;;;;;1.48;71.56;98581.31;6283297;22;20018;-91
2022/01/09 15:58:39;;;;;;;20.15;8.27;;;;;;;1.38;72.64;98561.03;6283368;22;19942;-91
2022/01/09 16:01:13;;;;;;;22.70;9.55;;;;;;;1.48;72.35;98591.38;6310366;22;20454;-91
2022/01/09 16:03:44;;;;;;;18.83;9.07;;;;;;;1.41;72.85;98588.72;6310546;22;20045;-91
2022/01/09 16:06:15;;;;;;;16.52;7.75;;;;;;;0.92;73.13;98530.06;6282845;22;20015;-91
2022/01/09 16:08:47;;;;;;;15.63;7.28;;;;;;;1.25;73.94;98598.50;6253410;22;20390;-91
2022/01/09 16:11:28;;;;;;;21.23;9.20;;;;;;;1.27;73.51;98596.84;6278235;22;20015;-92
2022/01/09 16:14:01;;;;;;;19.55;8.52;;;;;;;0.31;74.10;98429.34;6252541;22;20455;-91
2022/01/09 16:16:32;;;;;;;21.52;8.63;;;;;;;1.35;74.21;98600.34;6279515;22;20355;-91
2022/01/09 16:19:03;;;;;;;20.65;9.50;;;;;;;1.37;74.43;98607.09;6278299;22;20015;-91
2022/01/09 16:21:33;;;;;;;23.88;9.65;;;;;;;1.13;74.77;98569.78;6277621;22;20474;-91
2022/01/09 16:24:04;;;;;;;18.08;9.75;;;;;;;1.08;74.34;98579.75;6277838;22;20015;-91
2022/01/09 16:26:37;;;;;;;16.58;8.82;;;;;;;0.98;74.74;98567.84;6252389;22;20099;-91
2022/01/09 16:29:06;;;;;;;17.60;7.78;;;;;;;0.34;74.96;98474.53;6279090;22;20474;-91
2022/01/09 16:31:37;;;;;;;17.40;8.65;;;;;;;1.01;74.98;98582.97;6277411;22;20026;-91
2022/01/09 16:34:07;;;;;;;20.17;9.10;;;;;;;1.24;75.07;98606.88;6278748;22;20095;-91
2022/01/09 16:36:38;;;;;;;18.73;8.57;;;;;;;0.81;74.92;98544.09;6278830;22;20095;-92
2022/01/09 16:39:11;;;;;;;26.83;12.32;;;;;;;1.27;75.77;98614.44;6278543;22;20020;-92
2022/01/09 16:41:44;;;;;;;32.38;12.90;;;;;;;1.30;75.69;98617.03;6288049;22;20016;-90
2022/01/09 16:44:14;;;;;;;33.45;12.13;;;;;;;1.17;74.88;98591.66;6279545;22;20022;-90
2022/01/09 16:46:44;;;;;;;44.88;20.40;;;;;;;1.31;75.12;98617.88;6271105;22;20016;-91
2022/01/09 16:49:14;;;;;;;39.53;18.52;;;;;;;1.32;74.88;98627.94;6252253;22;20015;-91
2022/01/09 16:51:46;;;;;;;29.08;14.50;;;;;;;0.78;75.43;98533.97;6278828;22;20019;-91
2022/01/09 16:54:16;;;;;;;26.90;14.05;;;;;;;0.65;75.29;98519.47;6278695;22;20035;-91
2022/01/09 16:56:48;;;;;;;25.30;11.45;;;;;;;0.80;75.53;98562.47;6278826;22;20328;-91
2022/01/09 16:59:19;;;;;;;31.70;14.60;;;;;;;1.04;75.14;98608.16;6277729;22;20047;-91
2022/01/09 17:01:49;;;;;;;31.55;13.38;;;;;;;0.33;75.75;98467.84;6277492;22;20022;-91
2022/01/09 17:04:20;;;;;;;22.10;12.18;;;;;;;1.31;75.84;98645.50;6278634;22;20015;-91
2022/01/09 17:06:51;;;;;;;25.05;12.55;;;;;;;1.31;75.81;98638.81;6251846;22;20019;-91
2022/01/09 17:09:25;;;;;;;25.55;12.18;;;;;;;1.26;75.46;98640.41;6278421;22;20504;-91
2022/01/09 17:12:00;;;;;;;23.15;12.50;;;;;;;0.15;75.45;98459.94;6278045;22;20031;-91
2022/01/09 17:14:31;;;;;;;28.02;13.07;;;;;;;1.04;75.77;98608.16;6277152;22;20036;-91
2022/01/09 17:17:04;;;;;;;24.80;11.40;;;;;;;1.14;75.45;98629.25;6277435;22;20031;-91
2022/01/09 17:19:35;;;;;;;23.58;11.45;;;;;;;1.23;75.48;98649.53;6277628;22;20015;-91
2022/01/09 17:22:05;;;;;;;23.35;11.80;;;;;;;1.22;75.96;98643.66;6278153;22;20036;-91
2022/01/09 17:24:36;;;;;;;25.42;11.20;;;;;;;1.02;75.79;98619.84;6278590;22;20019;-91
2022/01/09 17:27:07;;;;;;;25.50;11.23;;;;;;;1.24;76.03;98641.19;6251065;22;20016;-91
2022/01/09 17:29:38;;;;;;;24.33;12.32;;;;;;;1.24;76.07;98649.59;6278490;22;20027;-92
2022/01/09 17:32:08;;;;;;;24.80;12.20;;;;;;;0.78;75.87;98574.16;6279411;22;20026;-92
2022/01/09 17:34:38;;;;;;;27.83;11.43;;;;;;;0.86;75.51;98586.84;6276979;22;20058;-91
2022/01/09 17:37:09;;;;;;;22.73;11.77;;;;;;;0.75;76.18;98574.06;6278404;22;20435;-91
2022/01/09 17:39:40;;;;;;;24.42;11.48;;;;;;;0.98;76.25;98613.06;6251660;22;20019;-91
2022/01/09 17:42:12;;;;;;;23.90;12.02;;;;;;;1.18;76.34;98654.47;6277903;22;20019;-90
2022/01/09 17:44:49;;;;;;;28.88;12.25;;;;;;;1.25;75.85;98668.00;6276595;22;20016;-91
2022/01/09 17:47:19;;;;;;;21.70;11.55;;;;;;;0.82;76.02;98590.97;6225993;22;20016;-91
2022/01/09 17:49:50;;;;;;;23.70;11.10;;;;;;;0.87;75.99;98594.41;6225831;22;20102;-91
2022/01/09 17:52:28;;;;;;;20.25;10.57;;;;;;;0.97;75.75;98613.88;6278687;22;20024;-92
2022/01/09 17:54:59;;;;;;;19.95;9.75;;;;;;;1.29;75.60;98675.66;6277186;22;20071;-91
2022/01/09 17:57:31;;;;;;;20.77;9.77;;;;;;;1.06;76.34;98641.66;6278096;22;20099;-91
2022/01/09 18:00:05;;;;;;;19.98;10.75;;;;;;;1.16;76.69;98666.16;6278440;22;20111;-91
2022/01/09 18:02:41;;;;;;;25.88;12.07;;;;;;;0.58;76.05;98565.34;6278058;22;20035;-91
2022/01/09 18:05:13;;;;;;;21.58;10.00;;;;;;;0.63;76.15;98579.72;6276869;22;20019;-91
2022/01/09 18:07:50;;;;;;;22.50;10.75;;;;;;;0.90;77.07;98639.69;6203399;22;20026;-91
2022/01/09 18:10:21;;;;;;;20.67;10.50;;;;;;;0.85;76.60;98630.34;6250925;22;20467;-92
2022/01/09 18:12:53;;;;;;;;;;;;;;;1.25;76.73;98709.06;6277026;22;20008;-91
2022/01/09 18:15:23;;;;;;;20.23;9.18;;;;;;;1.00;77.13;98656.63;6160254;23;20272;-91
2022/01/09 18:17:54;;;;;;;21.67;10.25;;;;;;;0.94;76.64;98660.66;6160165;23;20017;-91
2022/01/09 18:20:28;;;;;;;20.58;9.90;;;;;;;0.89;76.83;98663.09;6185105;23;20118;-91
2022/01/09 18:23:01;;;;;;;21.00;9.35;;;;;;;0.86;77.02;98660.53;6159187;23;20155;-91
2022/01/09 18:25:39;;;;;;;20.10;10.02;;;;;;;0.48;77.58;98609.50;6111350;23;20021;-92
2022/01/09 18:28:11;;;;;;;26.00;11.40;;;;;;;0.99;77.68;98691.75;6160140;23;20028;-91
2022/01/09 18:30:44;;;;;;;18.45;9.82;;;;;;;1.14;77.57;98720.56;6095334;23;20042;-91
2022/01/09 18:33:14;;;;;;;20.33;9.82;;;;;;;0.31;77.63;98574.84;6092802;23;20018;-91
2022/01/09 18:35:44;;;;;;;21.38;10.27;;;;;;;1.07;77.05;98723.75;6095873;23;20083;-92
2022/01/09 18:38:14;;;;;;;18.63;8.40;;;;;;;0.74;77.66;98666.94;6069128;23;20054;-92
2022/01/09 18:40:45;;;;;;;17.85;9.07;;;;;;;0.83;77.51;98679.69;6184330;23;20467;-93
2022/01/09 18:43:16;;;;;;;18.23;8.18;;;;;;;0.17;77.44;98566.19;6134234;23;20135;-91
2022/01/09 18:45:48;;;;;;;17.20;7.57;;;;;;;1.06;77.35;98727.06;6211887;23;20087;-90
2022/01/09 18:48:21;;;;;;;17.23;8.45;;;;;;;0.40;77.71;98630.22;6209869;23;20353;-92
2022/01/09 18:50:56;;;;;;;18.85;8.23;;;;;;;0.34;77.92;98615.03;6184676;23;20024;-85
2022/01/09 18:53:28;;;;;;;20.33;8.32;;;;;;;0.83;77.95;98703.16;6185212;23;20032;-91
2022/01/09 18:56:04;;;;;;;19.02;8.25;;;;;;;0.38;77.94;98624.34;6186962;23;20032;-92
2022/01/09 18:58:36;;;;;;;19.38;9.55;;;;;;;0.54;77.82;98649.81;6212089;23;20020;-90
2022/01/09 19:02:02;;;;;;;21.73;10.25;;;;;;;1.17;77.84;98740.72;6201377;22;20050;-91
2022/01/09 19:04:38;;;;;;;18.85;9.23;;;;;;;1.00;77.61;98716.91;6274739;22;20020;-89
2022/01/09 19:07:11;;;;;;;24.33;9.68;;;;;;;0.66;77.94;98649.22;6247434;22;20325;-91
2022/01/09 19:09:41;;;;;;;20.15;9.77;;;;;;;0.83;78.34;98685.56;6272646;22;20459;-89
2022/01/09 19:12:14;;;;;;;20.90;9.68;;;;;;;0.59;77.60;98664.94;6275245;22;20016;-92
2022/01/09 19:22:39;;;;;;;18.73;7.78;;;;;;;0.83;79.00;98738.31;6278439;22;20030;-94
2022/01/09 19:25:12;;;;;;;15.40;7.82;;;;;;;0.78;78.51;98729.81;6249458;22;20020;-90
2022/01/09 19:27:43;;;;;;;22.45;8.88;;;;;;;0.99;79.28;98772.97;6274293;22;20151;-93
2022/01/09 19:30:17;;;;;;;19.70;9.48;;;;;;;0.22;78.75;98625.63;6249606;22;20019;-88
2022/01/09 19:32:50;;;;;;;19.90;8.60;;;;;;;-0.08;78.97;98575.66;6276063;22;20097;-92
2022/01/09 19:35:24;;;;;;;19.23;9.65;;;;;;;0.57;79.26;98684.16;6276402;22;20023;-91
2022/01/09 19:37:57;;;;;;;20.38;9.63;;;;;;;1.11;78.92;98773.25;6275492;22;20038;-87
2022/01/09 19:40:27;;;;;;;24.17;11.57;;;;;;;0.92;79.25;98747.69;6278739;22;20027;-92
2022/01/09 19:42:57;;;;;;;25.30;11.02;;;;;;;0.79;79.01;98739.06;6227199;22;20103;-94
2022/01/09 19:45:47;;;;;;;24.42;10.30;;;;;;;-0.26;78.83;98569.34;6275899;22;20451;-93
2022/01/09 19:48:20;;;;;;;25.02;12.18;;;;;;;0.99;78.82;98775.50;6276008;22;20016;-91
2022/01/09 19:50:55;;;;;;;19.80;9.48;;;;;;;1.01;78.81;98770.53;6152947;23;20362;-91
2022/01/09 19:53:32;;;;;;;19.88;10.10;;;;;;;1.01;79.57;98781.38;6127030;23;20024;-89
2022/01/09 19:56:05;;;;;;;25.20;10.57;;;;;;;0.75;78.85;98739.78;6156098;23;20021;-91
2022/01/09 19:58:36;;;;;;;25.30;9.68;;;;;;;0.83;79.38;98767.56;6104634;23;20369;-93
2022/01/09 20:01:06;;;;;;;22.42;10.15;;;;;;;0.94;79.14;98781.22;6128807;23;20021;-93
2022/01/09 20:03:37;;;;;;;21.95;10.35;;;;;;;0.45;79.23;98703.94;6128672;23;20026;-92
2022/01/09 20:06:09;;;;;;;22.55;9.98;;;;;;;0.44;79.20;98702.25;6079944;23;20026;-93
2022/01/09 20:08:52;;;;;;;24.17;10.75;;;;;;;1.01;78.80;98791.44;6181723;22;20081;-93
2022/01/09 20:11:23;;;;;;;26.73;11.95;;;;;;;0.31;78.53;98680.22;6277411;22;20028;-92
2022/01/09 20:14:03;;;;;;;28.88;11.00;;;;;;;-0.04;78.72;98631.72;6216886;22;20020;-93
2022/01/09 20:16:33;;;;;;;27.42;11.80;;;;;;;0.89;78.69;98802.88;6275763;22;20391;-92
2022/01/09 20:19:03;;;;;;;28.00;12.20;;;;;;;0.81;79.28;98780.09;6276143;22;20452;-90
2022/01/09 20:21:33;;;;;;;28.85;12.73;;;;;;;0.90;78.94;98797.88;6277460;22;20043;-91
2022/01/09 20:24:12;;;;;;;24.58;11.43;;;;;;;-0.11;79.28;98630.72;6278319;22;20098;-91
2022/01/09 20:26:49;;;;;;;24.35;10.38;;;;;;;0.94;79.29;98812.19;6277058;22;20455;-91
2022/01/09 20:29:53;;;;;;;24.20;10.52;;;;;;;0.42;79.42;98723.94;6246811;22;20378;-90
2022/01/09 20:32:24;;;;;;;24.13;10.57;;;;;;;0.57;79.55;98766.97;6256926;22;20022;-91
2022/01/09 20:34:59;;;;;;;27.30;12.60;;;;;;;0.88;79.43;98812.06;6309732;22;20053;-90
2022/01/09 20:37:29;;;;;;;26.88;11.65;;;;;;;0.62;79.48;98765.44;6283148;22;20022;-88
2022/01/09 20:40:09;;;;;;;24.45;11.05;;;;;;;0.29;79.25;98701.91;6309714;22;20015;-90
2022/01/09 20:42:41;;;;;;;24.25;10.80;;;;;;;0.98;79.29;98819.03;6231175;22;20023;-91
2022/01/09 20:45:12;;;;;;;21.90;11.43;;;;;;;0.60;79.52;98757.03;6309772;22;20023;-91
2022/01/09 20:47:54;;;;;;;24.33;11.02;;;;;;;0.73;79.09;98779.06;6282523;22;20019;-91
2022/01/09 20:50:31;;;;;;;19.63;8.77;;;;;;;-0.08;79.40;98645.84;6309560;22;20343;-91
2022/01/09 20:53:01;;;;;;;25.35;10.68;;;;;;;0.78;78.80;98785.06;6258118;22;20015;-91
2022/01/09 20:55:33;;;;;;;22.48;11.23;;;;;;;0.93;79.17;98813.03;6282600;22;20019;-91
2022/01/09 20:58:03;;;;;;;20.92;10.23;;;;;;;0.27;79.44;98688.44;6257335;22;20019;-90
2022/01/09 21:00:33;;;;;;;;;;;;;;;1.05;79.39;98822.50;6257399;22;20016;-91
2022/01/09 21:03:22;;;;;;;17.75;8.27;;;;;;;0.71;78.45;98783.22;6309305;22;19919;-90
2022/01/09 21:06:04;;;;;;;24.67;10.82;;;;;;;0.78;79.04;98797.59;6309450;22;20022;-91
2022/01/09 21:09:01;;;;;;;27.83;11.65;;;;;;;1.02;78.88;98830.81;6282606;22;20020;-90
2022/01/09 21:11:35;;;;;;;;;;;;;;;0.99;78.30;98830.75;6310545;22;20025;-90
2022/01/09 21:14:07;;;;;;;19.38;9.02;;;;;;;0.05;78.76;98686.28;6309630;22;19918;-90
2022/01/09 21:16:36;;;;;;;;;;;;;;;0.91;78.32;98837.25;6282792;22;20090;-90
2022/01/09 21:19:11;;;;;;;26.55;10.75;;;;;;;0.86;79.09;98838.81;6206903;22;19958;-90
2022/01/09 21:21:40;;;;;;;25.60;11.82;;;;;;;0.77;79.01;98813.47;6308587;22;20019;-90
2022/01/09 21:24:10;;;;;;;;;;;;;;;0.89;78.87;98836.34;6282822;22;20015;-90
2022/01/09 21:26:42;;;;;;;25.77;9.63;;;;;;;0.86;78.99;98835.47;6282815;22;19942;-90
2022/01/09 21:29:13;;;;;;;24.35;11.32;;;;;;;0.57;79.20;98785.41;6282187;22;20102;-90
2022/01/09 21:31:45;;;;;;;25.08;12.07;;;;;;;0.63;79.20;98789.69;6309659;22;20011;-90
2022/01/09 21:34:15;;;;;;;29.77;12.10;;;;;;;0.73;78.96;98809.19;6282690;22;20070;-90
2022/01/09 21:36:45;;;;;;;;;;;;;;;0.95;78.99;98839.03;6231700;22;20019;-90
2022/01/09 21:39:17;;;;;;;21.17;10.32;;;;;;;0.80;78.88;98828.63;6282041;22;19968;-90
2022/01/09 21:41:53;;;;;;;26.23;11.73;;;;;;;0.64;79.31;98814.00;6282107;22;20019;-90
2022/01/09 21:44:25;;;;;;;25.30;11.52;;;;;;;0.79;78.84;98831.09;6256611;22;20039;-90
2022/01/09 21:47:00;;;;;;;28.00;13.07;;;;;;;0.76;78.95;98854.47;6309514;22;20027;-86
2022/01/09 21:49:32;;;;;;;30.80;13.80;;;;;;;0.66;78.92;98855.06;6217396;23;20432;-91
2022/01/09 21:52:06;;;;;;;27.65;12.98;;;;;;;0.70;79.49;98859.31;6190376;23;20084;-90
2022/01/09 21:54:37;;;;;;;28.80;13.18;;;;;;;0.80;79.38;98853.72;6167384;23;20020;-89
2022/01/09 21:57:14;;;;;;;25.77;12.63;;;;;;;0.51;79.03;98804.47;6192283;23;20020;-90
2022/01/09 21:59:45;;;;;;;26.27;13.27;;;;;;;0.72;78.92;98835.09;6192061;23;20043;-90
2022/01/09 22:02:21;;;;;;;32.20;14.20;;;;;;;-0.14;78.49;98693.31;6166835;23;20021;-90
2022/01/09 22:04:53;;;;;;;26.17;12.88;;;;;;;0.77;79.05;98848.63;6165237;23;20021;-90
2022/01/09 22:07:24;;;;;;;25.63;12.93;;;;;;;0.36;78.85;98794.06;6215361;23;20016;-91
2022/01/09 22:09:57;;;;;;;28.42;13.15;;;;;;;0.55;78.85;98821.31;6215307;23;20023;-90